createdAt,value
2022-09-07T00:00:09.227Z,5.90
2022-09-07T00:02:37.103Z,4.97
2022-09-07T00:05:05.137Z,5.85
2022-09-07T00:07:32.854Z,5.35
2022-09-07T00:10:00.566Z,5.18
2022-09-07T00:12:28.378Z,5.32
2022-09-07T00:14:57.512Z,5.15
2022-09-07T00:17:25.319Z,7.13
2022-09-07T00:19:53.197Z,5.90
2022-09-07T00:22:20.953Z,5.45
2022-09-07T00:24:48.770Z,5.65
2022-09-07T00:27:16.599Z,6.13
2022-09-07T00:29:44.701Z,6.35
2022-09-07T00:32:14.428Z,5.70
2022-09-07T00:34:42.221Z,6.45
2022-09-07T00:37:09.965Z,6.45
2022-09-07T00:39:39.366Z,6.32
2022-09-07T00:42:07.216Z,7.95
2022-09-07T00:44:55.862Z,6.50
2022-09-07T00:47:26.243Z,6.70
2022-09-07T00:49:56.140Z,5.70
2022-09-07T00:52:24.866Z,7.57
2022-09-07T00:54:57.079Z,7.43
2022-09-07T00:57:24.985Z,7.70
2022-09-07T00:59:57.664Z,8.10
2022-09-07T01:02:27.299Z,8.27
2022-09-07T01:05:07.550Z,8.65
2022-09-07T01:07:37.615Z,7.53
2022-09-07T01:10:06.116Z,6.80
2022-09-07T01:12:33.902Z,6.97
2022-09-07T01:15:02.019Z,7.15
2022-09-07T01:17:37.685Z,6.88
2022-09-07T01:20:30.027Z,6.47
2022-09-07T01:23:12.596Z,7.65
2022-09-07T01:25:43.906Z,6.45
2022-09-07T01:28:16.979Z,7.57
2022-09-07T01:30:49.940Z,7.55
2022-09-07T01:33:34.284Z,8.18
2022-09-07T01:36:08.153Z,8.30
2022-09-07T01:38:39.023Z,8.50
2022-09-07T01:41:10.482Z,9.20
2022-09-07T01:43:42.914Z,8.23
2022-09-07T01:46:15.749Z,7.03
2022-09-07T01:48:44.289Z,7.32
2022-09-07T01:51:12.388Z,6.57
2022-09-07T01:53:41.893Z,6.75
2022-09-07T01:56:11.455Z,6.30
2022-09-07T01:58:42.027Z,7.53
2022-09-07T02:01:12.118Z,7.30
2022-09-07T02:03:42.546Z,6.43
2022-09-07T02:06:14.135Z,6.80
2022-09-07T02:08:43.090Z,6.63
2022-09-07T02:11:13.585Z,6.63
2022-09-07T02:13:43.480Z,6.50
2022-09-07T02:16:13.173Z,6.13
2022-09-07T02:18:45.898Z,6.63
2022-09-07T02:21:14.728Z,6.93
2022-09-07T02:23:45.580Z,6.25
2022-09-07T02:26:15.094Z,6.13
2022-09-07T02:28:44.240Z,7.10
2022-09-07T02:31:12.080Z,7.60
2022-09-07T02:33:40.074Z,7.00
2022-09-07T02:36:08.333Z,6.88
2022-09-07T02:38:36.302Z,9.13
2022-09-07T02:41:04.344Z,7.97
2022-09-07T02:43:33.059Z,7.20
2022-09-07T02:46:19.261Z,7.43
2022-09-07T02:48:57.696Z,7.70
2022-09-07T02:51:29.170Z,8.52
2022-09-07T02:54:04.210Z,8.07
2022-09-07T02:56:39.219Z,7.25
2022-09-07T02:59:12.264Z,7.38
2022-09-07T03:01:46.958Z,7.10
2022-09-07T03:04:16.707Z,7.60
2022-09-07T03:06:47.172Z,7.88
2022-09-07T03:09:17.739Z,6.88
2022-09-07T03:11:45.832Z,8.93
2022-09-07T03:14:15.024Z,8.63
2022-09-07T03:16:44.233Z,8.13
2022-09-07T03:19:12.046Z,9.05
2022-09-07T03:21:39.828Z,7.57
2022-09-07T03:24:07.931Z,8.48
2022-09-07T03:26:37.160Z,7.57
2022-09-07T03:29:04.910Z,8.52
2022-09-07T03:31:33.201Z,8.90
2022-09-07T03:34:02.363Z,7.25
2022-09-07T03:36:30.329Z,6.45
2022-09-07T03:38:58.736Z,6.88
2022-09-07T03:41:27.170Z,7.20
2022-09-07T03:43:55.402Z,8.07
2022-09-07T03:46:23.529Z,9.02
2022-09-07T03:48:51.441Z,7.45
2022-09-07T03:51:20.673Z,7.28
2022-09-07T03:53:48.564Z,8.80
2022-09-07T03:56:18.300Z,7.65
2022-09-07T03:58:46.553Z,7.70
2022-09-07T04:01:16.415Z,7.75
2022-09-07T04:03:44.397Z,8.23
2022-09-07T04:06:12.940Z,8.20
2022-09-07T04:08:42.544Z,8.25
2022-09-07T04:11:12.996Z,10.13
2022-09-07T04:13:41.002Z,8.50
2022-09-07T04:16:12.950Z,8.27
2022-09-07T04:18:40.796Z,11.48
2022-09-07T04:21:08.647Z,15.10
2022-09-07T04:23:38.009Z,10.35
2022-09-07T04:26:07.329Z,8.00
2022-09-07T04:28:35.064Z,8.05
2022-09-07T04:31:03.129Z,8.55
2022-09-07T04:33:32.139Z,8.77
2022-09-07T04:36:00.357Z,8.27
2022-09-07T04:38:28.787Z,7.90
2022-09-07T04:41:00.190Z,7.47
2022-09-07T04:43:29.809Z,7.70
2022-09-07T04:45:57.628Z,7.95
2022-09-07T04:48:25.522Z,7.15
2022-09-07T04:50:53.398Z,8.80
2022-09-07T04:53:21.232Z,6.80
2022-09-07T04:55:48.950Z,7.38
2022-09-07T04:58:16.752Z,7.50
2022-09-07T05:00:48.584Z,7.63
2022-09-07T05:03:16.352Z,7.50
2022-09-07T05:05:45.071Z,7.40
2022-09-07T05:08:15.871Z,8.40
2022-09-07T05:10:51.457Z,7.28
2022-09-07T05:13:19.195Z,7.90
2022-09-07T05:15:48.355Z,7.80
2022-09-07T05:18:16.135Z,7.75
2022-09-07T05:20:44.055Z,7.85
2022-09-07T05:23:11.792Z,7.32
2022-09-07T05:25:43.502Z,7.03
2022-09-07T05:28:12.527Z,7.00
2022-09-07T05:36:19.240Z,8.15
2022-09-07T05:38:47.006Z,7.35
2022-09-07T05:41:15.409Z,7.28
2022-09-07T05:46:31.293Z,7.72
2022-09-07T05:49:03.265Z,7.22
2022-09-07T05:51:31.186Z,7.53
2022-09-07T05:53:59.891Z,7.30
2022-09-07T05:56:29.662Z,7.95
2022-09-07T05:58:57.510Z,7.07
2022-09-07T06:01:25.297Z,8.00
2022-09-07T06:03:53.023Z,8.30
2022-09-07T06:06:22.495Z,7.45
2022-09-07T06:08:51.223Z,7.15
2022-09-07T06:11:20.298Z,6.88
2022-09-07T06:13:48.136Z,6.28
2022-09-07T06:16:16.502Z,6.22
2022-09-07T06:18:45.324Z,6.22
2022-09-07T06:21:13.582Z,6.35
2022-09-07T06:23:43.618Z,7.43
2022-09-07T06:26:11.892Z,16.30
2022-09-07T06:28:40.895Z,7.55
2022-09-07T06:31:09.619Z,6.68
2022-09-07T06:33:37.562Z,6.22
2022-09-07T06:36:06.346Z,5.97
2022-09-07T06:38:35.267Z,6.18
2022-09-07T06:43:52.362Z,7.38
2022-09-07T06:49:07.986Z,6.78
2022-09-07T06:51:35.929Z,5.43
2022-09-07T06:56:55.669Z,6.00
2022-09-07T06:59:23.496Z,8.10
2022-09-07T07:01:51.259Z,6.00
2022-09-07T07:04:19.002Z,7.00
2022-09-07T07:06:46.759Z,6.95
2022-09-07T07:09:14.534Z,6.53
2022-09-07T07:11:43.664Z,6.40
2022-09-07T07:14:15.133Z,6.20
2022-09-07T07:16:43.049Z,6.90
2022-09-07T07:19:10.832Z,6.40
2022-09-07T07:22:03.392Z,7.47
2022-09-07T07:24:26.474Z,6.15
2022-09-07T07:26:54.205Z,5.97
2022-09-07T07:29:25.139Z,6.65
2022-09-07T07:31:55.978Z,6.15
2022-09-07T07:34:23.841Z,7.00
2022-09-07T07:36:51.609Z,6.68
2022-09-07T07:42:07.091Z,5.55
2022-09-07T07:44:36.227Z,6.38
2022-09-07T07:47:04.195Z,7.25
2022-09-07T07:49:32.040Z,6.30
2022-09-07T07:54:48.124Z,5.73
2022-09-07T07:57:16.918Z,6.13
2022-09-07T07:59:46.327Z,5.65
2022-09-07T08:02:15.936Z,6.35
2022-09-07T08:04:43.887Z,5.75
2022-09-07T08:07:12.284Z,5.20
2022-09-07T08:09:40.772Z,5.70
2022-09-07T08:12:09.240Z,6.03
2022-09-07T08:14:41.178Z,6.18
2022-09-07T08:17:11.056Z,5.50
2022-09-07T08:19:38.911Z,6.03
2022-09-07T08:22:06.880Z,7.30
2022-09-07T08:24:34.770Z,6.20
2022-09-07T08:27:02.475Z,4.97
2022-09-07T08:29:33.757Z,5.40
2022-09-07T08:32:03.673Z,5.63
2022-09-07T08:34:32.879Z,6.32
2022-09-07T08:37:00.643Z,5.65
2022-09-07T08:39:28.415Z,5.80
2022-09-07T08:42:00.797Z,5.70
2022-09-07T08:44:32.861Z,5.38
2022-09-07T08:47:03.577Z,5.43
2022-09-07T08:49:34.110Z,5.15
2022-09-07T08:52:03.058Z,6.13
2022-09-07T08:54:30.889Z,5.93
2022-09-07T08:59:50.176Z,5.72
2022-09-07T09:06:11.117Z,4.72
2022-09-07T09:06:11.223Z,4.95
2022-09-07T09:08:11.274Z,5.30
2022-09-07T09:10:44.724Z,4.82
2022-09-07T09:13:16.444Z,5.72
2022-09-07T09:15:53.834Z,5.30
2022-09-07T09:18:28.179Z,4.97
2022-09-07T09:20:58.187Z,4.72
2022-09-07T09:23:26.972Z,5.10
2022-09-07T09:25:55.255Z,5.70
2022-09-07T09:28:24.680Z,5.32
2022-09-07T09:30:54.706Z,5.97
2022-09-07T09:33:23.765Z,4.95
2022-09-07T09:35:52.568Z,5.70
2022-09-07T09:38:32.426Z,5.82
2022-09-07T09:41:01.611Z,5.35
2022-09-07T09:43:33.637Z,4.88
2022-09-07T09:46:17.228Z,5.10
2022-09-07T09:48:50.993Z,5.00
2022-09-07T09:54:17.052Z,5.22
2022-09-07T09:56:45.512Z,5.68
2022-09-07T10:05:20.854Z,4.90
2022-09-07T10:07:52.022Z,5.63
2022-09-07T10:10:21.665Z,5.43
2022-09-07T10:12:52.993Z,4.90
2022-09-07T10:15:26.851Z,5.40
2022-09-07T10:17:54.728Z,4.65
2022-09-07T10:20:31.157Z,5.65
2022-09-07T10:22:59.601Z,5.25
2022-09-07T10:25:29.914Z,6.18
2022-09-07T10:28:05.709Z,5.63
2022-09-07T10:30:37.222Z,5.20
2022-09-07T10:33:06.649Z,4.70
2022-09-07T10:35:35.629Z,4.55
2022-09-07T10:38:07.243Z,5.20
2022-09-07T10:40:39.120Z,5.22
2022-09-07T10:43:22.965Z,4.00
2022-09-07T10:46:05.719Z,5.50
2022-09-07T10:48:35.356Z,4.78
2022-09-07T10:51:13.492Z,4.70
2022-09-07T10:53:44.187Z,6.40
2022-09-07T10:56:16.228Z,10.80
2022-09-07T10:59:01.804Z,5.22
2022-09-07T11:01:37.377Z,4.50
2022-09-07T11:04:13.930Z,5.18
2022-09-07T11:06:42.507Z,5.10
2022-09-07T11:09:20.247Z,6.05
2022-09-07T11:12:03.048Z,5.95
2022-09-07T11:14:33.647Z,6.25
2022-09-07T11:17:03.210Z,6.20
2022-09-07T11:19:35.297Z,5.50
2022-09-07T11:22:07.542Z,5.72
2022-09-07T11:24:38.850Z,7.30
2022-09-07T11:27:11.352Z,5.78
2022-09-07T11:29:44.867Z,5.40
2022-09-07T11:32:14.137Z,5.93
2022-09-07T11:34:45.190Z,5.85
2022-09-07T11:37:17.997Z,6.05
2022-09-07T11:39:47.729Z,6.60
2022-09-07T11:45:13.621Z,5.88
2022-09-07T11:47:44.148Z,5.63
2022-09-07T11:50:15.593Z,6.35
2022-09-07T11:52:44.197Z,7.65
2022-09-07T11:55:12.788Z,7.90
2022-09-07T11:57:49.687Z,8.55
2022-09-07T12:00:21.063Z,8.95
2022-09-07T12:03:03.948Z,9.80
2022-09-07T12:05:41.634Z,15.52
2022-09-07T12:08:16.374Z,9.70
2022-09-07T12:10:51.911Z,10.07
2022-09-07T12:13:32.348Z,10.50
2022-09-07T12:16:03.053Z,10.25
2022-09-07T12:18:43.581Z,9.10
2022-09-07T12:21:26.405Z,9.50
2022-09-07T12:23:54.248Z,9.15
2022-09-07T12:26:40.874Z,10.15
2022-09-07T12:29:23.572Z,9.63
2022-09-07T12:32:07.653Z,10.38
2022-09-07T12:34:54.666Z,10.05
2022-09-07T12:37:41.996Z,8.98
2022-09-07T12:40:28.364Z,9.93
2022-09-07T12:43:10.992Z,10.18
2022-09-07T12:45:50.205Z,10.65
2022-09-07T12:48:27.204Z,11.30
2022-09-07T12:50:56.900Z,9.50
2022-09-07T12:53:29.786Z,9.18
2022-09-07T12:56:21.980Z,9.32
2022-09-07T12:58:58.563Z,10.23
2022-09-07T13:01:33.348Z,9.30
2022-09-07T13:04:09.572Z,9.93
2022-09-07T13:07:06.328Z,10.55
2022-09-07T13:09:34.703Z,9.00
2022-09-07T13:12:04.771Z,9.35
2022-09-07T13:14:35.281Z,9.45
2022-09-07T13:17:21.511Z,9.23
2022-09-07T13:20:07.162Z,8.30
2022-09-07T13:22:53.593Z,8.15
2022-09-07T13:25:45.632Z,8.63
2022-09-07T13:28:17.399Z,8.30
2022-09-07T13:30:53.468Z,7.70
2022-09-07T13:33:39.424Z,7.22
2022-09-07T13:36:16.717Z,7.07
2022-09-07T13:38:45.141Z,8.52
2022-09-07T13:41:14.699Z,7.60
2022-09-07T13:43:47.040Z,7.00
2022-09-07T13:46:19.266Z,7.72
2022-09-07T13:48:50.198Z,7.65
2022-09-07T13:51:21.350Z,7.55
2022-09-07T13:53:57.354Z,6.97
2022-09-07T13:56:33.056Z,7.13
2022-09-07T13:59:00.890Z,5.75
2022-09-07T14:01:30.026Z,6.03
2022-09-07T14:03:59.567Z,5.65
2022-09-07T14:06:31.241Z,5.95
2022-09-07T14:08:59.993Z,5.80
2022-09-07T14:11:28.943Z,5.63
2022-09-07T14:14:16.558Z,5.95
2022-09-07T14:19:13.312Z,4.63
2022-09-07T14:21:42.464Z,4.68
2022-09-07T14:24:19.666Z,4.93
2022-09-07T14:26:48.358Z,5.75
2022-09-07T14:29:23.615Z,6.03
2022-09-07T14:31:51.868Z,6.18
2022-09-07T14:34:21.721Z,5.97
2022-09-07T14:36:51.777Z,5.55
2022-09-07T14:39:20.873Z,4.93
2022-09-07T14:41:49.104Z,5.70
2022-09-07T14:44:30.165Z,5.85
2022-09-07T14:46:59.257Z,5.60
2022-09-07T14:49:27.355Z,5.28
2022-09-07T14:52:00.896Z,5.32
2022-09-07T14:54:30.855Z,5.47
2022-09-07T14:57:01.100Z,5.55
2022-09-07T14:59:35.651Z,5.72
2022-09-07T15:02:24.001Z,5.40
2022-09-07T15:05:11.889Z,6.35
2022-09-07T15:07:41.791Z,5.80
2022-09-07T15:10:16.337Z,5.93
2022-09-07T15:12:44.413Z,6.10
2022-09-07T15:15:13.464Z,7.50
2022-09-07T15:17:44.735Z,6.32
2022-09-07T15:20:31.130Z,6.70
2022-09-07T15:23:00.703Z,6.90
2022-09-07T15:25:28.838Z,7.57
2022-09-07T15:27:56.622Z,7.07
2022-09-07T15:30:25.251Z,7.55
2022-09-07T15:32:53.255Z,6.80
2022-09-07T15:35:21.120Z,6.78
2022-09-07T15:38:05.419Z,6.45
2022-09-07T15:40:51.301Z,6.20
2022-09-07T15:43:28.542Z,6.82
2022-09-07T15:45:56.774Z,7.80
2022-09-07T15:48:26.052Z,7.55
2022-09-07T15:51:01.487Z,7.45
2022-09-07T15:56:20.153Z,7.75
2022-09-07T15:58:52.611Z,6.85
2022-09-07T16:04:08.263Z,8.27
2022-09-07T16:06:36.135Z,8.43
2022-09-07T16:09:06.103Z,8.15
2022-09-07T16:11:35.669Z,8.57
2022-09-07T16:14:03.951Z,8.00
2022-09-07T16:19:20.827Z,8.20
2022-09-07T16:21:49.367Z,9.10
2022-09-07T16:24:17.470Z,9.32
2022-09-07T16:26:46.623Z,8.90
2022-09-07T16:29:14.356Z,9.07
2022-09-07T16:34:30.297Z,9.20
2022-09-07T16:36:58.063Z,9.88
2022-09-07T16:39:26.160Z,9.73
2022-09-07T16:41:55.693Z,9.23
2022-09-07T16:44:23.460Z,9.98
2022-09-07T16:46:51.125Z,10.25
2022-09-07T16:49:19.757Z,9.63
2022-09-07T16:51:47.495Z,10.65
2022-09-07T16:54:15.886Z,10.27
2022-09-07T16:56:43.691Z,10.90
2022-09-07T16:59:16.055Z,9.80
2022-09-07T17:01:44.028Z,10.90
2022-09-07T17:04:12.409Z,10.05
2022-09-07T17:06:41.416Z,9.82
2022-09-07T17:09:09.270Z,9.55
2022-09-07T17:11:37.940Z,11.98
2022-09-07T17:14:06.698Z,10.77
2022-09-07T17:16:36.891Z,10.80
2022-09-07T17:21:53.849Z,10.10
2022-09-07T17:24:21.690Z,11.15
2022-09-07T17:26:49.773Z,10.32
2022-09-07T17:29:17.705Z,10.35
2022-09-07T17:34:34.665Z,13.48
2022-09-07T17:37:02.340Z,11.52
2022-09-07T17:39:30.512Z,12.40
2022-09-07T17:41:58.353Z,12.27
2022-09-07T17:44:30.788Z,10.63
2022-09-07T17:47:02.580Z,11.10
2022-09-07T17:49:30.560Z,10.95
2022-09-07T17:51:59.145Z,10.85
2022-09-07T17:54:27.150Z,11.18
2022-09-07T17:56:55.583Z,11.13
2022-09-07T18:02:13.817Z,12.45
2022-09-07T18:04:41.815Z,12.90
2022-09-07T18:07:09.639Z,13.95
2022-09-07T18:09:37.480Z,14.45
2022-09-07T18:12:05.474Z,16.20
2022-09-07T18:14:33.198Z,12.63
2022-09-07T18:17:01.217Z,12.73
2022-09-07T18:19:30.408Z,16.55
2022-09-07T18:21:58.190Z,15.40
2022-09-07T18:24:26.057Z,13.95
2022-09-07T18:26:54.402Z,12.98
2022-09-07T18:29:34.360Z,13.65
2022-09-07T18:32:04.788Z,17.83
2022-09-07T18:34:36.953Z,11.73
2022-09-07T18:37:07.297Z,15.45
2022-09-07T18:39:35.705Z,21.42
2022-09-07T18:42:03.751Z,14.32
2022-09-07T18:47:27.681Z,14.73
2022-09-07T18:49:57.589Z,19.10
2022-09-07T18:55:13.042Z,14.27
2022-09-07T18:57:40.751Z,14.13
2022-09-07T19:00:09.853Z,14.80
2022-09-07T19:02:37.736Z,14.60
2022-09-07T19:07:55.291Z,23.83
2022-09-07T19:10:23.153Z,23.17
2022-09-07T19:12:50.959Z,15.30
2022-09-07T19:15:20.536Z,13.20
2022-09-07T19:17:48.527Z,13.13
2022-09-07T19:20:17.842Z,14.48
2022-09-07T19:22:45.879Z,13.63
2022-09-07T19:25:13.627Z,14.50
2022-09-07T19:27:41.407Z,14.52
2022-09-07T19:30:09.982Z,14.82
2022-09-07T19:32:37.960Z,15.27
2022-09-07T19:35:06.019Z,15.50
2022-09-07T19:37:35.161Z,16.83
2022-09-07T19:40:03.230Z,28.40
2022-09-07T19:42:31.888Z,24.98
2022-09-07T19:44:59.671Z,18.27
2022-09-07T19:47:27.496Z,18.92
2022-09-07T19:49:55.220Z,19.15
2022-09-07T19:52:23.389Z,16.42
2022-09-07T19:54:52.479Z,15.60
2022-09-07T19:57:20.242Z,16.80
2022-09-07T19:59:47.955Z,17.73
2022-09-07T20:02:15.913Z,19.88
2022-09-07T20:04:43.791Z,19.58
2022-09-07T20:07:12.591Z,20.10
2022-09-07T20:09:40.324Z,17.25
2022-09-07T20:12:09.943Z,19.77
2022-09-07T20:14:37.910Z,18.58
2022-09-07T20:17:05.590Z,20.00
2022-09-07T20:19:33.429Z,19.75
2022-09-07T20:22:01.537Z,18.42
2022-09-07T20:24:29.290Z,17.05
2022-09-07T20:26:57.293Z,17.35
2022-09-07T20:29:28.250Z,15.55
2022-09-07T20:31:57.126Z,17.48
2022-09-07T20:34:24.915Z,17.63
2022-09-07T20:36:53.000Z,16.10
2022-09-07T20:39:21.115Z,15.57
2022-09-07T20:41:48.853Z,15.85
2022-09-07T20:44:16.808Z,16.23
2022-09-07T20:46:45.963Z,14.35
2022-09-07T20:49:13.737Z,15.82
2022-09-07T20:51:41.449Z,14.40
2022-09-07T20:54:10.204Z,14.20
2022-09-07T20:56:37.919Z,14.57
2022-09-07T20:59:05.639Z,14.25
2022-09-07T21:01:35.184Z,13.82
2022-09-07T21:04:06.125Z,13.80
2022-09-07T21:06:34.115Z,14.48
2022-09-07T21:09:02.214Z,15.63
2022-09-07T21:11:31.196Z,14.65
2022-09-07T21:14:00.179Z,14.13
2022-09-07T21:16:28.432Z,14.32
2022-09-07T21:18:57.554Z,15.15
2022-09-07T21:21:27.640Z,14.50
2022-09-07T21:23:55.997Z,15.40
2022-09-07T21:26:23.978Z,14.23
2022-09-07T21:28:55.352Z,14.85
2022-09-07T21:31:23.313Z,14.07
2022-09-07T21:33:54.536Z,14.65
2022-09-07T21:36:22.413Z,14.23
2022-09-07T21:38:51.632Z,13.55
2022-09-07T21:41:20.328Z,13.00
2022-09-07T21:43:48.145Z,13.75
2022-09-07T21:46:17.261Z,14.20
2022-09-07T21:48:46.034Z,13.98
2022-09-07T21:51:13.796Z,13.35
2022-09-07T21:53:41.826Z,12.93
2022-09-07T21:56:12.403Z,14.13
2022-09-07T21:58:40.424Z,12.63
2022-09-07T22:01:12.251Z,13.25
2022-09-07T22:03:40.688Z,13.52
2022-09-07T22:06:08.789Z,12.57
2022-09-07T22:08:36.821Z,13.02
2022-09-07T22:11:05.327Z,12.68
2022-09-07T22:13:34.834Z,13.60
2022-09-07T22:16:03.608Z,13.52
2022-09-07T22:18:31.680Z,15.00
2022-09-07T22:21:03.576Z,18.20
2022-09-07T22:23:31.489Z,15.00
2022-09-07T22:25:59.295Z,14.65
2022-09-07T22:28:27.296Z,14.38
2022-09-07T22:30:56.641Z,13.63
2022-09-07T22:33:24.398Z,14.57
2022-09-07T22:35:52.125Z,13.88
2022-09-07T22:38:19.821Z,13.20
2022-09-07T22:40:47.559Z,13.65
2022-09-07T22:43:15.238Z,13.45
2022-09-07T22:45:42.972Z,12.27
2022-09-07T22:48:12.089Z,13.60
2022-09-07T22:50:39.874Z,13.52
2022-09-07T22:53:07.635Z,13.70
2022-09-07T22:55:39.065Z,12.77
2022-09-07T22:58:06.785Z,13.02
2022-09-07T23:00:36.446Z,13.75
2022-09-07T23:03:04.996Z,12.73
2022-09-07T23:05:38.203Z,13.63
2022-09-07T23:08:05.909Z,12.60
2022-09-07T23:10:35.095Z,13.27
2022-09-07T23:13:02.829Z,12.48
2022-09-07T23:15:30.691Z,13.18
2022-09-07T23:17:58.440Z,13.77
2022-09-07T23:20:26.620Z,13.30
2022-09-07T23:22:55.657Z,12.95
2022-09-07T23:25:23.400Z,12.85
2022-09-07T23:27:51.096Z,12.98
2022-09-07T23:30:18.973Z,13.75
2022-09-07T23:32:46.781Z,13.80
2022-09-07T23:35:16.637Z,13.75
2022-09-07T23:37:44.614Z,13.20
2022-09-07T23:40:13.758Z,14.13
2022-09-07T23:42:41.474Z,12.95
2022-09-07T23:45:09.783Z,13.93
2022-09-07T23:47:37.471Z,12.20
2022-09-07T23:50:05.600Z,12.13
2022-09-07T23:52:33.515Z,11.90
2022-09-07T23:55:01.201Z,12.75
2022-09-07T23:57:30.330Z,12.32
2022-09-07T23:59:58.162Z,13.13
